Aspen Park, Colorado
Current Conditions -  °F | °C
As of 7:53 AM on Saturday 22 Nov 2014 (Local Time) from KAPA Reporting Station
Scattered Clouds Scattered Clouds  
Wind Chill: 40°   Ceiling: Unl
Heat Index: 46°   Visibility: 10mi
Dew Point: 11°   Wind: 15mph
Humidity: 24%   Direction: 210°SSW
Pressure: 29.78"   Gusts: 25mph
Location:  39.4975°N, 105.289°W
Report Text: KAPA 221453Z 21013G22KT 10SM FEW100 FEW120 SCT200 08/M12 A2978 RMK AO2 SLP080 T00781117 58021
Loading
Personal Weather Stations






























Interactive Weather Map New forecast layout! Learn more

10-Day Weather Forecast

Advertisements
Track Severe Weather on mobile